Time;durP1;ratioP1;P1;durP2;ratioP2;P2;SDS_P1;SDS_P2;PMS_P1;PMS_P2;Temp;Humidity;BMP_temperature;BMP_pressure;BME280_temperature;BME280_humidity;BME280_pressure;Samples;Min_cycle;Max_cycle;Signal;HPM_P1;HPM_P2
2023/09/30 00:03:52;;;;;;;12.02;8.15;;;;;;;;;;10347686;28;20086;-69
2023/09/30 00:08:48;;;;;;;19.77;9.93;;;;;;;;;;10333747;28;20419;-68
2023/09/30 00:13:45;;;;;;;14.63;8.95;;;;;;;;;;10344051;28;20045;-67
2023/09/30 00:18:42;;;;;;;24.38;9.43;;;;;;;;;;10340130;28;20072;-67
2023/09/30 00:23:38;;;;;;;18.38;9.10;;;;;;;;;;10338003;28;20052;-67
2023/09/30 00:28:34;;;;;;;19.30;8.15;;;;;;;;;;10345289;28;20079;-67
2023/09/30 00:33:31;;;;;;;16.20;8.98;;;;;;;;;;10343083;28;20051;-67
2023/09/30 00:38:27;;;;;;;13.95;8.70;;;;;;;;;;10335667;28;20051;-67
2023/09/30 00:43:23;;;;;;;13.50;8.57;;;;;;;;;;10341378;28;20546;-67
2023/09/30 00:48:20;;;;;;;17.10;8.93;;;;;;;;;;10336624;28;20094;-65
2023/09/30 00:53:16;;;;;;;10.32;8.32;;;;;;;;;;10343554;28;20052;-65
2023/09/30 00:58:12;;;;;;;18.27;8.77;;;;;;;;;;10343351;28;20048;-65
2023/09/30 01:03:09;;;;;;;15.45;8.68;;;;;;;;;;10341699;28;20059;-65
2023/09/30 01:08:06;;;;;;;16.40;8.02;;;;;;;;;;10342941;28;20496;-65
2023/09/30 01:13:02;;;;;;;18.98;8.00;;;;;;;;;;10338568;28;20044;-65
2023/09/30 01:17:59;;;;;;;17.58;8.45;;;;;;;;;;10340726;28;20427;-65
2023/09/30 01:22:56;;;;;;;21.08;8.85;;;;;;;;;;10339252;28;20056;-65
2023/09/30 01:27:54;;;;;;;15.40;7.55;;;;;;;;;;10340403;28;20055;-65
2023/09/30 01:32:50;;;;;;;13.27;7.60;;;;;;;;;;10345123;28;20075;-65
2023/09/30 01:37:46;;;;;;;19.88;8.48;;;;;;;;;;10319793;28;20500;-67
2023/09/30 01:42:42;;;;;;;16.73;8.00;;;;;;;;;;10351215;28;20040;-68
2023/09/30 01:47:39;;;;;;;16.27;8.60;;;;;;;;;;10333484;28;20127;-67
2023/09/30 01:52:36;;;;;;;10.77;8.30;;;;;;;;;;10331828;28;20044;-67
2023/09/30 01:57:32;;;;;;;19.45;8.60;;;;;;;;;;10331908;28;20060;-68
2023/09/30 02:02:28;;;;;;;15.45;8.48;;;;;;;;;;10344094;28;20048;-68
2023/09/30 02:07:25;;;;;;;18.02;8.30;;;;;;;;;;10331425;28;20052;-68
2023/09/30 02:12:21;;;;;;;15.10;8.35;;;;;;;;;;10341448;28;20113;-65
2023/09/30 02:17:17;;;;;;;18.13;8.88;;;;;;;;;;10353411;28;20048;-66
2023/09/30 02:22:15;;;;;;;25.38;8.18;;;;;;;;;;10314286;28;20056;-66
2023/09/30 02:27:11;;;;;;;17.27;9.18;;;;;;;;;;10337459;28;20106;-66
2023/09/30 02:32:09;;;;;;;18.05;9.38;;;;;;;;;;10352231;28;20056;-64
2023/09/30 02:37:05;;;;;;;15.23;8.48;;;;;;;;;;10331541;28;20159;-65
2023/09/30 02:42:01;;;;;;;21.30;9.13;;;;;;;;;;10336609;28;20051;-67
2023/09/30 02:46:57;;;;;;;15.88;9.05;;;;;;;;;;10334441;28;20084;-67
2023/09/30 02:51:54;;;;;;;17.48;9.45;;;;;;;;;;10328680;28;20044;-66
2023/09/30 02:56:52;;;;;;;16.92;9.35;;;;;;;;;;10342893;28;20082;-68
2023/09/30 03:01:48;;;;;;;17.50;9.48;;;;;;;;;;10341787;28;20059;-67
2023/09/30 03:06:45;;;;;;;18.98;9.25;;;;;;;;;;10343264;28;20072;-67
2023/09/30 03:11:42;;;;;;;16.83;9.57;;;;;;;;;;10349619;28;20055;-67
2023/09/30 03:16:40;;;;;;;17.88;9.68;;;;;;;;;;10342273;28;20052;-67
2023/09/30 03:21:36;;;;;;;17.40;9.77;;;;;;;;;;10357143;28;20099;-65
2023/09/30 03:26:33;;;;;;;25.33;9.65;;;;;;;;;;10345415;28;20705;-67
2023/09/30 03:31:29;;;;;;;19.52;9.80;;;;;;;;;;10338320;28;20051;-67
2023/09/30 03:36:26;;;;;;;17.63;9.38;;;;;;;;;;10341273;28;20124;-67
2023/09/30 03:41:22;;;;;;;18.38;10.20;;;;;;;;;;10343587;28;20100;-68
2023/09/30 03:46:19;;;;;;;20.90;10.60;;;;;;;;;;10342930;28;20094;-68
2023/09/30 03:51:15;;;;;;;18.65;10.50;;;;;;;;;;10326535;28;20128;-67
2023/09/30 03:56:11;;;;;;;15.73;9.07;;;;;;;;;;10327268;28;20072;-67
2023/09/30 04:01:11;;;;;;;16.27;9.85;;;;;;;;;;10337602;28;20052;-67
2023/09/30 04:06:07;;;;;;;22.60;10.38;;;;;;;;;;10342917;28;20158;-66
2023/09/30 04:11:04;;;;;;;17.35;10.68;;;;;;;;;;10334881;28;20102;-66
2023/09/30 04:16:00;;;;;;;21.02;11.07;;;;;;;;;;10331655;28;20057;-66
2023/09/30 04:20:57;;;;;;;18.38;9.93;;;;;;;;;;10344805;28;20393;-66
2023/09/30 04:25:53;;;;;;;17.48;10.23;;;;;;;;;;10345978;28;20044;-66
2023/09/30 04:30:50;;;;;;;16.55;9.95;;;;;;;;;;10347139;28;20441;-66
2023/09/30 04:35:46;;;;;;;18.90;10.65;;;;;;;;;;10343476;28;20040;-66
2023/09/30 04:40:44;;;;;;;20.23;11.13;;;;;;;;;;10354868;28;20504;-66
2023/09/30 04:45:40;;;;;;;18.80;11.00;;;;;;;;;;10336297;28;20052;-66
2023/09/30 04:50:38;;;;;;;17.98;10.10;;;;;;;;;;10332851;28;20051;-66
2023/09/30 04:55:34;;;;;;;23.45;10.35;;;;;;;;;;10333788;28;20695;-66
2023/09/30 05:00:31;;;;;;;19.48;10.30;;;;;;;;;;10328280;28;20110;-66
2023/09/30 05:05:28;;;;;;;16.45;9.65;;;;;;;;;;10332498;28;20059;-67
2023/09/30 05:10:25;;;;;;;21.63;11.65;;;;;;;;;;10337788;28;20054;-67
2023/09/30 05:15:21;;;;;;;15.85;9.75;;;;;;;;;;10323536;28;20067;-67
2023/09/30 05:20:18;;;;;;;20.00;10.10;;;;;;;;;;10334725;28;20044;-69
2023/09/30 05:25:18;;;;;;;15.32;10.38;;;;;;;;;;10335714;28;20048;-69
2023/09/30 05:30:15;;;;;;;19.40;11.40;;;;;;;;;;10333339;28;20044;-69
2023/09/30 05:35:12;;;;;;;20.10;11.55;;;;;;;;;;10341161;28;20464;-69
2023/09/30 05:40:23;;;;;;;16.77;11.15;;;;;;;;;;10342343;28;20047;-69
2023/09/30 05:45:23;;;;;;;13.23;10.13;;;;;;;;;;10347627;28;20088;-69
2023/09/30 05:50:24;;;;;;;16.67;10.73;;;;;;;;;;10344596;28;20044;-69
2023/09/30 05:55:22;;;;;;;17.83;10.85;;;;;;;;;;10342385;28;20121;-68
2023/09/30 06:05:26;;;;;;;16.83;10.57;;;;;;;;;;10336162;28;20036;-68
2023/09/30 06:10:22;;;;;;;16.55;9.73;;;;;;;;;;10337239;28;20202;-68
2023/09/30 06:15:21;;;;;;;18.13;9.68;;;;;;;;;;10324359;28;20412;-68
2023/09/30 06:20:19;;;;;;;15.18;10.55;;;;;;;;;;10333055;28;20084;-69
2023/09/30 06:25:16;;;;;;;18.90;10.43;;;;;;;;;;10319507;28;20097;-69
2023/09/30 06:30:13;;;;;;;21.95;11.07;;;;;;;;;;10347505;28;20084;-69
2023/09/30 06:35:10;;;;;;;17.42;10.88;;;;;;;;;;10325421;28;20049;-70
2023/09/30 06:40:08;;;;;;;16.33;10.30;;;;;;;;;;10339028;28;20048;-70
2023/09/30 06:45:05;;;;;;;25.30;11.05;;;;;;;;;;10340472;28;20044;-70
2023/09/30 06:50:07;;;;;;;16.65;11.27;;;;;;;;;;10334356;28;20040;-71
2023/09/30 06:55:06;;;;;;;16.90;10.18;;;;;;;;;;10326473;28;20051;-70
2023/09/30 07:00:08;;;;;;;16.02;10.60;;;;;;;;;;10322297;28;20048;-70
2023/09/30 07:05:07;;;;;;;17.73;10.00;;;;;;;;;;10326668;28;20481;-70
2023/09/30 07:10:06;;;;;;;25.48;11.93;;;;;;;;;;10337037;28;20051;-70
2023/09/30 07:15:04;;;;;;;18.95;10.75;;;;;;;;;;10348086;28;20154;-70
2023/09/30 07:20:02;;;;;;;17.45;10.60;;;;;;;;;;10335207;28;20504;-70
2023/09/30 07:24:58;;;;;;;19.50;9.40;;;;;;;;;;10343428;28;20052;-70
2023/09/30 07:29:54;;;;;;;16.83;8.90;;;;;;;;;;10336208;28;20131;-70
2023/09/30 07:34:51;;;;;;;10.65;8.48;;;;;;;;;;10352528;28;20465;-70
2023/09/30 07:39:48;;;;;;;15.88;8.90;;;;;;;;;;10329530;28;20045;-70
2023/09/30 07:44:44;;;;;;;21.00;9.98;;;;;;;;;;10328251;28;20174;-70
2023/09/30 07:49:41;;;;;;;13.30;8.48;;;;;;;;;;10320574;28;20514;-70
2023/09/30 07:54:37;;;;;;;20.85;9.45;;;;;;;;;;10326432;28;20102;-69
2023/09/30 07:59:34;;;;;;;13.23;7.90;;;;;;;;;;10356468;28;20048;-69
2023/09/30 08:04:30;;;;;;;16.30;8.13;;;;;;;;;;10346247;28;20040;-70
2023/09/30 08:09:27;;;;;;;16.83;8.70;;;;;;;;;;10331154;28;20051;-69
2023/09/30 08:14:23;;;;;;;26.63;8.90;;;;;;;;;;10333087;28;20040;-69
2023/09/30 08:19:20;;;;;;;13.10;7.40;;;;;;;;;;10350915;28;20503;-69
2023/09/30 08:24:17;;;;;;;12.93;7.03;;;;;;;;;;10336244;28;20059;-70
2023/09/30 08:29:14;;;;;;;13.38;7.25;;;;;;;;;;10318583;28;20467;-70
2023/09/30 08:34:10;;;;;;;16.67;7.55;;;;;;;;;;10337320;28;20484;-69
2023/09/30 08:39:06;;;;;;;13.93;8.07;;;;;;;;;;10332112;28;20051;-70
2023/09/30 08:44:04;;;;;;;12.65;7.18;;;;;;;;;;10336324;28;20592;-70
2023/09/30 08:49:01;;;;;;;17.20;7.32;;;;;;;;;;10331801;28;20078;-69
2023/09/30 08:53:58;;;;;;;15.95;7.57;;;;;;;;;;10342993;28;20044;-70
2023/09/30 08:58:56;;;;;;;15.95;6.95;;;;;;;;;;10331355;28;20071;-70
2023/09/30 09:03:53;;;;;;;10.00;6.75;;;;;;;;;;10326471;28;20414;-70
2023/09/30 09:08:50;;;;;;;14.98;7.60;;;;;;;;;;10324862;28;20045;-70
2023/09/30 09:13:51;;;;;;;17.10;6.80;;;;;;;;;;10317328;28;20048;-69
2023/09/30 09:18:47;;;;;;;11.25;6.05;;;;;;;;;;10331930;28;20508;-70
2023/09/30 09:23:46;;;;;;;15.90;6.45;;;;;;;;;;10335959;28;20653;-70
2023/09/30 09:28:42;;;;;;;14.15;6.50;;;;;;;;;;10333335;28;20527;-70
2023/09/30 09:33:38;;;;;;;17.02;6.70;;;;;;;;;;10332667;28;20502;-70
2023/09/30 09:38:49;;;;;;;15.10;6.93;;;;;;;;;;10327930;28;20059;-70
2023/09/30 09:43:48;;;;;;;15.45;6.32;;;;;;;;;;10338698;28;20050;-70
2023/09/30 09:48:45;;;;;;;19.25;6.43;;;;;;;;;;10328962;28;20049;-70
2023/09/30 09:53:43;;;;;;;14.70;6.40;;;;;;;;;;10347783;28;20483;-70
2023/09/30 09:58:42;;;;;;;11.82;6.05;;;;;;;;;;10331251;28;20051;-70
2023/09/30 10:03:39;;;;;;;14.00;5.88;;;;;;;;;;10324133;28;20458;-70
2023/09/30 10:08:40;;;;;;;14.63;5.53;;;;;;;;;;10346467;28;20131;-70
2023/09/30 10:13:53;;;;;;;8.77;5.97;;;;;;;;;;10339447;28;20718;-70
2023/09/30 10:19:09;;;;;;;10.50;5.55;;;;;;;;;;10333495;28;20052;-70
2023/09/30 10:24:23;;;;;;;14.82;5.90;;;;;;;;;;10333719;28;20049;-69
2023/09/30 10:29:19;;;;;;;11.93;5.75;;;;;;;;;;10346082;28;20044;-70
2023/09/30 10:34:17;;;;;;;13.60;5.53;;;;;;;;;;10349179;28;20500;-70
2023/09/30 10:39:14;;;;;;;12.55;5.82;;;;;;;;;;10331188;28;20044;-69
2023/09/30 10:44:26;;;;;;;14.63;5.90;;;;;;;;;;10342325;28;20423;-69
2023/09/30 10:49:23;;;;;;;9.73;5.47;;;;;;;;;;10343453;28;20136;-69
2023/09/30 10:54:26;;;;;;;8.77;6.00;;;;;;;;;;10327171;28;20071;-69
2023/09/30 10:59:23;;;;;;;11.07;6.03;;;;;;;;;;10328329;28;20044;-69
2023/09/30 11:04:20;;;;;;;11.77;6.03;;;;;;;;;;10348415;28;20051;-69
2023/09/30 11:09:19;;;;;;;15.82;5.78;;;;;;;;;;10344263;28;20121;-69
2023/09/30 11:14:25;;;;;;;10.90;5.40;;;;;;;;;;10353221;28;20050;-69
2023/09/30 11:19:26;;;;;;;11.60;5.40;;;;;;;;;;10344895;28;20063;-69
2023/09/30 11:24:23;;;;;;;11.90;5.75;;;;;;;;;;10336412;28;20149;-69
2023/09/30 11:29:20;;;;;;;12.80;5.78;;;;;;;;;;10336810;28;20078;-69
2023/09/30 11:34:18;;;;;;;10.70;5.53;;;;;;;;;;10355397;28;20047;-69
2023/09/30 11:39:22;;;;;;;12.52;5.80;;;;;;;;;;10346333;28;20055;-69
2023/09/30 11:44:18;;;;;;;11.18;6.03;;;;;;;;;;10347495;28;20431;-69
2023/09/30 11:49:24;;;;;;;14.25;5.35;;;;;;;;;;10348101;28;20071;-69
2023/09/30 11:54:21;;;;;;;10.75;5.60;;;;;;;;;;10329664;28;20676;-69
2023/09/30 11:59:22;;;;;;;8.10;5.45;;;;;;;;;;10330035;28;20052;-69
2023/09/30 12:04:19;;;;;;;10.50;5.32;;;;;;;;;;10350915;28;20044;-69
2023/09/30 12:09:16;;;;;;;12.90;5.50;;;;;;;;;;10349884;28;20050;-69
2023/09/30 12:14:13;;;;;;;9.15;5.55;;;;;;;;;;10320549;28;20051;-70
2023/09/30 12:19:10;;;;;;;16.63;5.85;;;;;;;;;;10340482;28;20048;-69
2023/09/30 12:24:09;;;;;;;9.90;5.70;;;;;;;;;;10339735;28;20470;-70
2023/09/30 12:29:05;;;;;;;10.80;5.75;;;;;;;;;;10325734;28;20048;-69
2023/09/30 12:34:02;;;;;;;16.35;5.95;;;;;;;;;;10344318;28;20044;-69
2023/09/30 12:38:58;;;;;;;9.32;6.07;;;;;;;;;;10340249;28;20581;-69
2023/09/30 12:43:56;;;;;;;11.30;5.78;;;;;;;;;;10330396;28;20044;-70
2023/09/30 12:48:54;;;;;;;15.95;6.10;;;;;;;;;;10331113;28;20105;-69
2023/09/30 12:53:51;;;;;;;13.50;6.25;;;;;;;;;;10332969;28;20060;-70
2023/09/30 12:58:47;;;;;;;8.60;6.35;;;;;;;;;;10331720;28;20056;-70
2023/09/30 13:03:47;;;;;;;10.98;6.88;;;;;;;;;;10329347;28;20058;-70
2023/09/30 13:08:44;;;;;;;10.68;6.47;;;;;;;;;;10329674;28;20053;-69
2023/09/30 13:13:40;;;;;;;8.85;6.20;;;;;;;;;;10334553;28;20527;-69
2023/09/30 13:18:37;;;;;;;7.75;6.15;;;;;;;;;;10324386;28;20062;-70
2023/09/30 13:23:34;;;;;;;10.63;6.47;;;;;;;;;;10336331;28;20574;-69
2023/09/30 13:28:30;;;;;;;13.63;6.63;;;;;;;;;;10340392;28;20140;-70
2023/09/30 13:33:26;;;;;;;13.82;6.93;;;;;;;;;;10346336;28;20652;-70
2023/09/30 13:38:23;;;;;;;10.57;6.53;;;;;;;;;;10316953;28;20052;-69
2023/09/30 13:43:20;;;;;;;8.98;6.70;;;;;;;;;;10332718;28;20056;-69
2023/09/30 13:48:16;;;;;;;6.68;5.97;;;;;;;;;;10338253;28;20043;-69
2023/09/30 13:53:13;;;;;;;9.20;5.93;;;;;;;;;;10338073;28;20393;-69
2023/09/30 13:58:09;;;;;;;13.30;6.88;;;;;;;;;;10339422;28;20106;-69
2023/09/30 14:03:06;;;;;;;9.88;5.88;;;;;;;;;;10330117;28;20578;-69
2023/09/30 14:08:04;;;;;;;11.38;6.25;;;;;;;;;;10330014;28;20142;-69
2023/09/30 14:13:00;;;;;;;14.00;6.00;;;;;;;;;;10331283;28;20044;-69
2023/09/30 14:17:58;;;;;;;12.48;6.70;;;;;;;;;;10337965;28;20530;-69
2023/09/30 14:22:57;;;;;;;9.55;6.13;;;;;;;;;;10336447;28;20044;-69
2023/09/30 14:27:53;;;;;;;13.43;6.53;;;;;;;;;;10331609;28;20055;-69
2023/09/30 14:32:49;;;;;;;9.35;5.93;;;;;;;;;;10334297;28;20049;-69
2023/09/30 14:37:46;;;;;;;10.60;6.28;;;;;;;;;;10330629;28;20076;-69
2023/09/30 14:42:42;;;;;;;8.93;6.40;;;;;;;;;;10324627;28;20060;-69
2023/09/30 14:47:39;;;;;;;13.80;6.10;;;;;;;;;;10310278;28;20500;-69
2023/09/30 14:52:35;;;;;;;10.45;6.20;;;;;;;;;;10344209;28;20044;-69
2023/09/30 14:57:31;;;;;;;7.25;6.18;;;;;;;;;;10333211;28;20428;-69
2023/09/30 15:02:28;;;;;;;10.25;6.18;;;;;;;;;;10306496;28;20132;-69
2023/09/30 15:07:25;;;;;;;10.98;6.05;;;;;;;;;;10331031;28;20528;-69
2023/09/30 15:12:21;;;;;;;11.98;6.63;;;;;;;;;;10328891;28;20040;-69
2023/09/30 15:17:18;;;;;;;10.50;6.55;;;;;;;;;;10340914;28;20040;-69
2023/09/30 15:22:15;;;;;;;9.68;5.85;;;;;;;;;;10332896;28;20566;-69
2023/09/30 15:27:11;;;;;;;12.15;6.05;;;;;;;;;;10343915;28;20052;-69
2023/09/30 15:32:08;;;;;;;13.35;6.32;;;;;;;;;;10350171;28;20511;-69
2023/09/30 15:37:04;;;;;;;11.40;6.38;;;;;;;;;;10345074;28;20068;-69
2023/09/30 15:42:01;;;;;;;11.38;6.18;;;;;;;;;;10332474;28;20048;-69
2023/09/30 15:46:57;;;;;;;10.98;6.38;;;;;;;;;;10335280;28;20052;-69
2023/09/30 15:51:54;;;;;;;7.38;5.88;;;;;;;;;;10317076;28;20055;-69
2023/09/30 15:56:50;;;;;;;11.48;6.07;;;;;;;;;;10328443;28;20157;-69
2023/09/30 16:01:52;;;;;;;11.90;6.75;;;;;;;;;;10346762;28;20049;-69
2023/09/30 16:06:49;;;;;;;14.02;6.10;;;;;;;;;;10335384;28;20048;-69
2023/09/30 16:11:46;;;;;;;11.02;6.55;;;;;;;;;;10342054;28;20139;-69
2023/09/30 16:16:44;;;;;;;10.90;5.95;;;;;;;;;;10317876;28;20040;-69
2023/09/30 16:21:40;;;;;;;8.02;5.45;;;;;;;;;;10327802;28;20052;-69
2023/09/30 16:26:37;;;;;;;13.70;6.85;;;;;;;;;;10340454;28;20036;-69
2023/09/30 16:31:33;;;;;;;10.07;6.85;;;;;;;;;;10342455;28;20555;-69
2023/09/30 16:36:29;;;;;;;13.27;6.03;;;;;;;;;;10342433;28;20041;-68
2023/09/30 16:41:26;;;;;;;12.80;6.15;;;;;;;;;;10329011;28;20526;-71
2023/09/30 16:46:22;;;;;;;9.68;5.57;;;;;;;;;;10335506;28;20060;-71
2023/09/30 16:51:19;;;;;;;9.85;5.80;;;;;;;;;;10351802;28;20240;-71
2023/09/30 16:56:15;;;;;;;12.43;7.00;;;;;;;;;;10342529;28;20110;-71
2023/09/30 17:01:12;;;;;;;15.52;6.82;;;;;;;;;;10339821;28;20048;-71
2023/09/30 17:06:09;;;;;;;9.38;6.20;;;;;;;;;;10332428;28;20131;-70
2023/09/30 17:11:06;;;;;;;12.45;7.00;;;;;;;;;;10337535;28;20102;-69
2023/09/30 17:16:05;;;;;;;9.73;6.43;;;;;;;;;;10327257;28;20060;-68
2023/09/30 17:21:03;;;;;;;9.57;5.90;;;;;;;;;;10331499;28;20059;-70
2023/09/30 17:26:01;;;;;;;11.05;6.38;;;;;;;;;;10337170;28;20052;-70
2023/09/30 17:31:03;;;;;;;11.35;6.53;;;;;;;;;;10339882;28;20076;-70
2023/09/30 17:36:01;;;;;;;10.10;6.82;;;;;;;;;;10332416;28;20048;-70
2023/09/30 17:41:06;;;;;;;12.35;6.85;;;;;;;;;;10330535;28;20127;-70
2023/09/30 17:46:07;;;;;;;9.18;6.28;;;;;;;;;;10328118;28;20048;-70
2023/09/30 17:51:05;;;;;;;9.75;6.22;;;;;;;;;;10337152;28;20626;-70
2023/09/30 17:56:02;;;;;;;14.15;7.45;;;;;;;;;;10347182;28;20113;-70
2023/09/30 18:00:58;;;;;;;14.68;7.10;;;;;;;;;;10326942;28;20592;-70
2023/09/30 18:06:03;;;;;;;11.48;6.25;;;;;;;;;;10342812;28;20053;-70
2023/09/30 18:11:00;;;;;;;12.68;7.60;;;;;;;;;;10312141;28;20526;-70
2023/09/30 18:15:56;;;;;;;12.18;6.55;;;;;;;;;;10336287;28;20044;-70
2023/09/30 18:20:52;;;;;;;9.45;6.30;;;;;;;;;;10337841;28;20432;-70
2023/09/30 18:25:49;;;;;;;14.27;7.07;;;;;;;;;;10332481;28;20151;-70
2023/09/30 18:30:45;;;;;;;11.88;6.80;;;;;;;;;;10336982;28;20114;-70
2023/09/30 18:35:42;;;;;;;12.32;6.95;;;;;;;;;;10334058;28;20056;-70
2023/09/30 18:40:39;;;;;;;11.20;6.90;;;;;;;;;;10332850;28;20056;-70
2023/09/30 18:45:42;;;;;;;11.35;6.55;;;;;;;;;;10334863;28;20059;-70
2023/09/30 18:50:39;;;;;;;9.38;6.63;;;;;;;;;;10329634;28;20051;-70
2023/09/30 18:55:37;;;;;;;9.57;6.55;;;;;;;;;;10334242;28;20060;-70
2023/09/30 19:00:37;;;;;;;13.68;8.10;;;;;;;;;;10324964;28;20044;-70
2023/09/30 19:05:34;;;;;;;15.85;7.90;;;;;;;;;;10348422;28;20473;-70
2023/09/30 19:10:31;;;;;;;10.40;7.30;;;;;;;;;;10350644;28;20071;-70
2023/09/30 19:15:27;;;;;;;12.35;7.72;;;;;;;;;;10344914;28;20539;-70
2023/09/30 19:20:24;;;;;;;13.55;6.93;;;;;;;;;;10335677;28;20479;-70
2023/09/30 19:25:20;;;;;;;11.90;6.75;;;;;;;;;;10353713;28;20495;-70
2023/09/30 19:30:17;;;;;;;13.02;7.13;;;;;;;;;;10348611;28;20101;-70
2023/09/30 19:35:14;;;;;;;11.35;7.18;;;;;;;;;;10322765;28;20044;-70
2023/09/30 19:40:11;;;;;;;10.77;6.53;;;;;;;;;;10344004;28;20569;-70
2023/09/30 19:45:08;;;;;;;10.90;6.85;;;;;;;;;;10334650;28;20511;-70
2023/09/30 19:50:05;;;;;;;10.57;6.57;;;;;;;;;;10353413;28;20396;-70
2023/09/30 19:55:01;;;;;;;7.32;6.07;;;;;;;;;;10325045;28;20053;-70
2023/09/30 19:59:58;;;;;;;11.60;6.20;;;;;;;;;;10327153;28;20056;-70
2023/09/30 20:04:54;;;;;;;9.23;6.50;;;;;;;;;;10344910;28;20079;-70
2023/09/30 20:09:52;;;;;;;11.18;6.50;;;;;;;;;;10340933;28;20462;-70
2023/09/30 20:14:49;;;;;;;11.05;8.38;;;;;;;;;;10342915;28;20044;-70
2023/09/30 20:19:45;;;;;;;11.05;6.50;;;;;;;;;;10341540;28;20064;-70
2023/09/30 20:24:43;;;;;;;15.18;7.38;;;;;;;;;;10337538;28;20475;-70
2023/09/30 20:29:39;;;;;;;12.95;6.97;;;;;;;;;;10338546;28;20048;-70
2023/09/30 20:34:36;;;;;;;11.93;7.15;;;;;;;;;;10347668;28;20047;-70
2023/09/30 20:39:32;;;;;;;13.32;6.60;;;;;;;;;;10333257;28;20053;-70
2023/09/30 20:44:28;;;;;;;8.90;6.32;;;;;;;;;;10344018;28;20048;-70
2023/09/30 20:49:25;;;;;;;11.52;6.28;;;;;;;;;;10342994;28;20052;-70
2023/09/30 20:54:22;;;;;;;9.45;6.57;;;;;;;;;;10324273;28;20048;-70
2023/09/30 20:59:18;;;;;;;13.27;6.10;;;;;;;;;;10325062;28;20086;-70
2023/09/30 21:04:15;;;;;;;10.35;6.40;;;;;;;;;;10344532;28;20048;-70
2023/09/30 21:09:14;;;;;;;10.30;5.85;;;;;;;;;;10353887;28;20423;-70
2023/09/30 21:14:11;;;;;;;9.65;6.50;;;;;;;;;;10342994;28;20047;-70
2023/09/30 21:19:07;;;;;;;9.90;7.13;;;;;;;;;;10334936;28;20048;-70
2023/09/30 21:24:05;;;;;;;11.10;6.55;;;;;;;;;;10337156;28;20046;-70
2023/09/30 21:29:01;;;;;;;6.95;6.22;;;;;;;;;;10328141;28;20285;-70
2023/09/30 21:33:59;;;;;;;10.95;6.90;;;;;;;;;;10348017;28;20048;-70
2023/09/30 21:38:55;;;;;;;13.55;6.55;;;;;;;;;;10336606;28;20123;-70
2023/09/30 21:43:52;;;;;;;12.65;6.97;;;;;;;;;;10327161;28;20044;-70
2023/09/30 21:48:48;;;;;;;12.88;6.60;;;;;;;;;;10342920;28;20048;-70
2023/09/30 21:53:45;;;;;;;14.05;6.70;;;;;;;;;;10342411;28;20171;-70
2023/09/30 21:58:41;;;;;;;16.23;7.18;;;;;;;;;;10344718;28;20072;-70
2023/09/30 22:03:37;;;;;;;10.55;6.60;;;;;;;;;;10333951;28;20060;-70
2023/09/30 22:08:34;;;;;;;9.00;6.82;;;;;;;;;;10320116;28;20091;-70
2023/09/30 22:13:30;;;;;;;8.82;6.57;;;;;;;;;;10342686;28;20048;-70
2023/09/30 22:18:27;;;;;;;11.80;6.32;;;;;;;;;;10330007;28;20130;-70
2023/09/30 22:23:23;;;;;;;14.73;6.97;;;;;;;;;;10331297;28;20079;-71
2023/09/30 22:28:19;;;;;;;14.00;6.78;;;;;;;;;;10320770;28;20048;-71
2023/09/30 22:33:16;;;;;;;10.15;7.30;;;;;;;;;;10337967;28;20123;-71
2023/09/30 22:38:13;;;;;;;11.77;6.53;;;;;;;;;;10337921;28;20634;-72
2023/09/30 22:43:09;;;;;;;11.73;6.72;;;;;;;;;;10339858;28;20534;-71
2023/09/30 22:48:06;;;;;;;12.25;6.85;;;;;;;;;;10332459;28;20052;-71
2023/09/30 22:53:05;;;;;;;12.45;6.78;;;;;;;;;;10333342;28;20083;-70
2023/09/30 22:58:01;;;;;;;9.77;6.75;;;;;;;;;;10336733;28;20068;-71
2023/09/30 23:02:57;;;;;;;10.85;6.57;;;;;;;;;;10350702;28;20072;-71
2023/09/30 23:07:54;;;;;;;13.93;6.90;;;;;;;;;;10324787;28;20079;-71
2023/09/30 23:12:51;;;;;;;16.40;7.20;;;;;;;;;;10322073;28;20040;-71
2023/09/30 23:17:48;;;;;;;10.52;6.82;;;;;;;;;;10333968;28;20052;-71
2023/09/30 23:22:48;;;;;;;14.50;6.60;;;;;;;;;;10323681;28;20041;-71
2023/09/30 23:27:45;;;;;;;11.98;6.43;;;;;;;;;;10335160;28;20127;-71
2023/09/30 23:32:47;;;;;;;12.68;6.28;;;;;;;;;;10344030;28;20052;-71
2023/09/30 23:37:44;;;;;;;15.05;6.65;;;;;;;;;;10344369;28;20054;-71
2023/09/30 23:42:42;;;;;;;11.02;6.75;;;;;;;;;;10333147;28;20052;-71
2023/09/30 23:47:39;;;;;;;11.15;6.40;;;;;;;;;;10351285;28;20056;-71
2023/09/30 23:52:51;;;;;;;10.18;6.72;;;;;;;;;;10348534;28;20712;-71
2023/09/30 23:57:48;;;;;;;9.27;6.25;;;;;;;;;;10352934;28;20056;-71
